• Join FlightAware (Why Join?)
  • Login
  • US Flag GB Flag 
08:54 EDT


 

Airport Tracker/Info


-or-


 

Live Flight TrackerFlight Track Log ✈ UAL395 ✈ 29-Jun-2013 ✈ KMCO - KIAD

Flight Track Log - Related Links

Times and Time Zones

All times are in EDT time to prevent confusion due to time zone crossing. See the UAL395 flight status page for this flight to view local times or setup timezone preferences in your user account.

Time Position Orientation Groundspeed Altitude Reporting Facility
EDT Latitude Longitude Course Direction KTS MPH feet Rate Location/Type
22:45 28.4333 -81.3167 139° Southeast 130 150 800  Level Orlando TRACON
22:46 28.4000 -81.2833 139° Southeast 188 216 2,400 2,340 Climbing Orlando TRACON
22:47 28.4000 -81.2167 90° East 235 270 6,000 2,460 Climbing Orlando TRACON
22:49 28.5506 -81.2547 347° North 266 306 10,800 2,040 Climbing Jacksonville Center
22:50 28.6531 -81.2814 347° North 312 359 12,700 2,280 Climbing Jacksonville Center
22:51 28.7600 -81.3081 348° North 367 422 15,400 2,400 Climbing Jacksonville Center
22:52 28.8708 -81.3300 350° North 391 450 17,600 2,100 Climbing Jacksonville Center
22:53 28.9797 -81.3617 346° North 402 463 19,700 1,860 Climbing Jacksonville Center
22:54 29.0969 -81.3858 350° North 420 483 21,400 1,620 Climbing Jacksonville Center
22:55 29.2161 -81.4008 354° North 432 497 23,000 1,440 Climbing Jacksonville Center
22:56 29.3394 -81.4156 354° North 437 503 24,300 1,260 Climbing Jacksonville Center
22:57 29.4544 -81.4258 356° North 449 517 25,600 1,620 Climbing Jacksonville Center
22:58 29.5819 -81.4383 355° North 449 517 27,600 1,680 Climbing Jacksonville Center
22:59 29.7050 -81.4483 356° North 449 517 29,100 1,380 Climbing Jacksonville Center
23:00 29.8325 -81.4608 355° North 449 517 30,400 1,260 Climbing Jacksonville Center
23:01 29.9622 -81.4733 355° North 449 517 31,700 1,500 Climbing Jacksonville Center
23:02 30.0897 -81.4858 355° North 449 517 33,400 1,500 Climbing Jacksonville Center
23:03 30.2150 -81.4983 355° North 449 517 34,700 960 Climbing Jacksonville Center
23:04 30.3425 -81.5061 357° North 454 522 35,400 600 Climbing Jacksonville Center
23:05 30.4761 -81.4969 North 464 534 36,000 780 Climbing Jacksonville Center
23:06 30.6117 -81.4878 North 470 541 37,000 480 Climbing Jacksonville Center
23:07 30.7389 -81.4786 North 470 541 37,000  Level Jacksonville Center
23:08 30.8703 -81.4669 North 470 541 37,000  Level Jacksonville Center
23:09 30.9975 -81.4578 North 465 535 37,000  Level Jacksonville Center
23:10 31.1458 -81.4483 North 465 535 37,000  Level Jacksonville Center
23:11 31.2769 -81.4317 North 465 535 37,000  Level Jacksonville Center
23:12 31.3894 -81.3983 14° North 467 537 37,000  Level Jacksonville Center
23:13 31.5308 -81.3619 12° North 467 537 37,000  Level Jacksonville Center
23:14 31.6619 -81.3281 12° North 467 537 37,000  Level Jacksonville Center
23:15 31.7786 -81.2967 13° North 473 544 37,000 -60 Level Jacksonville Center
23:16 31.9222 -81.2625 11° North 478 550 36,900  Descending Jacksonville Center
23:17 32.0533 -81.2258 13° North 478 550 37,000  Climbing Jacksonville Center
23:18 32.1800 -81.1792 17° North 473 544 36,900 -60 Descending Jacksonville Center
23:19 32.2981 -81.1106 26° Northeast 476 548 36,900  Level Jacksonville Center
23:20 32.4203 -81.0394 26° Northeast 481 554 36,900  Level Jacksonville Center
23:21 32.5381 -80.9706 26° Northeast 476 548 37,000  Climbing Jacksonville Center
23:22 32.6603 -80.9011 26° Northeast 481 554 37,000  Level Jacksonville Center
23:23 32.7822 -80.8269 27° Northeast 481 554 37,000 -60 Level Jacksonville Center
23:24 32.9042 -80.7547 26° Northeast 481 554 36,900  Descending Jacksonville Center
23:25 33.0117 -80.6928 26° Northeast 481 554 37,000  Climbing Jacksonville Center
23:26 33.1356 -80.6228 25° Northeast 481 554 37,000  Level Jacksonville Center
23:27 33.2575 -80.5503 26° Northeast 481 554 37,000 -60 Level Jacksonville Center
23:28 33.3792 -80.4747 27° Northeast 481 554 36,900  Descending Jacksonville Center
23:29 33.5008 -80.4017 27° Northeast 481 554 37,000  Climbing Jacksonville Center
23:30 33.6225 -80.3286 27° Northeast 481 554 37,000  Level Jacksonville Center
23:31 33.7442 -80.2525 27° Northeast 481 554 37,000 -60 Level Jacksonville Center
23:32 33.8656 -80.1789 27° Northeast 481 554 36,900 -60 Descending Jacksonville Center
23:33 33.9892 -80.1050 26° Northeast 486 559 36,900  Level Jacksonville Center
23:34 34.1106 -80.0308 27° Northeast 486 559 37,000  Climbing Jacksonville Center
23:36 34.3153 -79.8989 28° Northeast 481 554 37,000  Level Washington Center
23:37 34.4392 -79.8225 27° Northeast 488 562 37,000  Level Washington Center
23:38 34.5650 -79.7456 27° Northeast 493 567 37,000  Level Washington Center
23:39 34.6906 -79.6686 27° Northeast 498 573 37,000  Level Washington Center
23:40 34.8122 -79.5939 27° Northeast 498 573 37,000  Level Washington Center
23:41 34.9378 -79.5164 27° Northeast 498 573 37,000  Level Washington Center
23:42 35.0614 -79.4389 27° Northeast 498 573 37,000  Level Washington Center
23:43 35.1850 -79.3608 27° Northeast 498 573 37,000  Level Washington Center
23:44 35.3275 -79.2733 27° Northeast 510 587 37,000  Level Washington Center
23:45 35.4508 -79.1922 28° Northeast 515 593 37,000  Level Washington Center
23:46 35.5783 -79.1139 27° Northeast 510 587 37,000  Level Washington Center
23:47 35.6889 -79.0444 27° Northeast 504 580 37,000  Level Washington Center
23:48 35.8292 -78.9558 27° Northeast 504 580 37,000  Level Washington Center
23:49 35.9547 -78.8714 29° Northeast 504 580 37,000  Level Washington Center
23:50 36.0800 -78.7892 28° Northeast 509 586 37,000  Level Washington Center
23:51 36.2094 -78.7069 27° Northeast 509 586 37,000  Level Washington Center
23:52 36.3347 -78.6242 28° Northeast 509 586 37,000  Level Washington Center
23:53 36.4642 -78.5414 27° Northeast 509 586 37,000  Level Washington Center
23:54 36.5892 -78.4581 28° Northeast 509 586 37,000  Level Washington Center
23:55 36.7142 -78.3747 28° Northeast 509 586 37,000  Level Washington Center
23:56 36.8414 -78.2911 28° Northeast 509 586 37,000 -60 Level Washington Center
23:57 36.9558 -78.2092 30° Northeast 515 593 36,900 -1,560 Descending Washington Center
23:58 37.0953 -78.1203 27° Northeast 515 593 33,900 -2,820 Descending Washington Center
23:59 37.2222 -78.0358 28° Northeast 510 587 31,200 -2,700 Descending Washington Center
00:00 37.3492 -77.9483 29° Northeast 510 587 28,500 -3,000 Descending Washington Center
00:01 37.4739 -77.8633 28° Northeast 510 587 25,300 -2,940 Descending Washington Center
00:02 37.5942 -77.7883 26° Northeast 499 574 22,700 -2,760 Descending Washington Center
00:03 37.7103 -77.7206 25° Northeast 481 554 19,900 -2,940 Descending Washington Center
00:04 37.8261 -77.6556 24° Northeast 462 532 17,000 -2,820 Descending Washington Center
00:05 37.9333 -77.5928 25° Northeast 435 501 14,200 -2,340 Descending Washington Center
00:06 38.0178 -77.5422 25° Northeast 427 491 12,300 -2,100 Descending Washington Center
00:07 38.1272 -77.4817 24° Northeast 399 459 10,000 -1,200 Descending Washington Center
00:08 38.2219 -77.4233 26° Northeast 385 443 10,000  Level Washington Center
00:09 38.3081 -77.3700 26° Northeast 361 415 10,000  Level Washington Center
00:10 38.4042 -77.3564 North 340 391 10,000 -540 Level Washington Center
00:11 38.4917 -77.3608 358° North 325 374 8,900 -1,440 Descending Washington Center
00:12 38.5708 -77.3656 357° North 301 346 7,200 -1,140 Descending Washington Center
00:13 38.6333 -77.3667 359° North 296 341 7,000 -720 Descending Potomac TRACON
00:14 38.7167 -77.3667 360° North 293 337 6,000 -1,440 Descending Potomac TRACON
00:15 38.8000 -77.3500 North 285 328 4,300 -1,080 Descending Potomac TRACON
00:16 38.8500 -77.3500 360° North 284 327 4,000 -180 Descending Potomac TRACON
00:17 38.9333 -77.3500 360° North 268 308 4,000 -600 Level Potomac TRACON
00:19 39.0500 -77.3833 347° North 223 257 2,200 -780 Descending Potomac TRACON
00:20 39.0333 -77.4333 247° West 177 204 1,700 -660 Descending Potomac TRACON
00:20 39.0000 -77.4333 180° South 161 185 1,100 -660 Descending Potomac TRACON
00:21 38.9667 -77.4333 180° South 141 162 600 -540 Descending Potomac TRACON
00:23 38.9474 -77.4599 195° South  Level Estimated
00:30 38.9474 -77.4599 195° South  Level Estimated
00:31 38.9474 -77.4599 195° South  Level Estimated
00:32 38.9474 -77.4599 195° South  Level Estimated